Tilford, South Dakota
Current Conditions -  °F | °C
As of 10:58 AM on Sunday 21 Dec 2014 (Local Time) from KRCA Reporting Station
Overcast Overcast  
Wind Chill: 38°   Ceiling: 16000
Heat Index: 41°   Visibility: 10mi
Dew Point: 26°   Wind: 5mph
Humidity: 55%   Direction: 200°SSW
Pressure: 29.43"   Gusts: NA
Location:  44.2544°N, 103.292°W
Report Text: KRCA 211758Z AUTO 20004KT 10SM SCT140 OVC160 05/M04 A2943 RMK AO2 SLP986 T00491036 10062 21041 57019 $
Loading
Personal Weather Stations






























Interactive Weather Map New forecast layout! Learn more

10-Day Weather Forecast

Advertisements
Track Severe Weather on mobile